createdAt,value
2019-02-04T00:00:15.875Z,100853.54
2019-02-04T00:02:57.981Z,100860.95
2019-02-04T00:05:37.242Z,100869.12
2019-02-04T00:08:17.754Z,100875.83
2019-02-04T00:10:59.371Z,100879.58
2019-02-04T00:13:38.469Z,100886.34
2019-02-04T00:16:17.680Z,100888.67
2019-02-04T00:18:57.226Z,100892.84
2019-02-04T00:21:38.812Z,100907.23
2019-02-04T00:24:18.135Z,100905.83
2019-02-04T00:26:57.910Z,100907.58
2019-02-04T00:29:37.907Z,100912.75
2019-02-04T00:32:17.250Z,100905.96
2019-02-04T00:35:00.665Z,100913.48
2019-02-04T00:37:40.631Z,100915.17
2019-02-04T00:40:21.081Z,100924.16
2019-02-04T00:43:00.935Z,100934.88
2019-02-04T00:45:40.646Z,100946.52
2019-02-04T00:48:20.021Z,100948.30
2019-02-04T00:50:59.852Z,100960.87
2019-02-04T00:53:39.609Z,100958.71
2019-02-04T00:56:18.779Z,100972.20
2019-02-04T00:58:58.024Z,100975.96
2019-02-04T01:01:37.273Z,100978.95
2019-02-04T01:04:17.534Z,100980.25
2019-02-04T01:06:56.832Z,100983.31
2019-02-04T01:09:36.671Z,100988.73
2019-02-04T01:12:19.123Z,100998.55
2019-02-04T01:14:59.659Z,101000.44
2019-02-04T01:17:38.821Z,101008.73
2019-02-04T01:20:26.042Z,101002.05
2019-02-04T01:23:05.803Z,101012.98
2019-02-04T01:25:44.939Z,101017.74
2019-02-04T01:28:24.216Z,101021.91
2019-02-04T01:31:04.599Z,101024.50
2019-02-04T01:33:43.815Z,101027.00
2019-02-04T01:36:23.063Z,101030.68
2019-02-04T01:39:08.651Z,101041.30
2019-02-04T01:41:47.778Z,101046.62
2019-02-04T01:44:27.032Z,101046.00
2019-02-04T01:47:14.485Z,101049.42
2019-02-04T01:49:48.689Z,101056.33
2019-02-04T01:52:29.232Z,101054.37
2019-02-04T01:55:12.978Z,101064.20
2019-02-04T01:57:55.265Z,101069.63
2019-02-04T02:00:38.202Z,101071.73
2019-02-04T02:03:17.517Z,101070.75
2019-02-04T02:05:56.813Z,101075.30
2019-02-04T02:08:36.166Z,101072.45
2019-02-04T02:11:15.438Z,101073.68
2019-02-04T02:13:54.754Z,101071.63
2019-02-04T02:16:34.006Z,101069.66
2019-02-04T02:19:13.287Z,101076.34
2019-02-04T02:21:53.145Z,101072.67
2019-02-04T02:24:32.450Z,101072.61
2019-02-04T02:27:14.154Z,101071.27
2019-02-04T02:29:53.889Z,101082.56
2019-02-04T02:32:34.414Z,101086.59
2019-02-04T02:35:13.798Z,101082.93
2019-02-04T02:37:53.023Z,101088.78
2019-02-04T02:40:34.485Z,101093.72
2019-02-04T02:43:13.885Z,101091.34
2019-02-04T02:45:53.664Z,101099.04
2019-02-04T02:48:32.819Z,101098.68
2019-02-04T02:51:12.545Z,101100.16
2019-02-04T02:53:51.717Z,101096.62
2019-02-04T02:56:30.842Z,101094.20
2019-02-04T02:59:09.954Z,101095.19
2019-02-04T03:01:49.637Z,101091.31
2019-02-04T03:04:28.772Z,101091.90
2019-02-04T03:07:08.059Z,101098.39
2019-02-04T03:09:48.254Z,101100.27
2019-02-04T03:12:27.389Z,101100.76
2019-02-04T03:15:08.136Z,101103.30
2019-02-04T03:17:52.242Z,101106.84
2019-02-04T03:20:28.242Z,101114.26
2019-02-04T03:23:08.072Z,101116.38
2019-02-04T03:25:50.260Z,101117.73
2019-02-04T03:28:29.986Z,101125.68
2019-02-04T03:31:11.112Z,101136.89
2019-02-04T03:33:50.396Z,101134.70
2019-02-04T03:36:29.522Z,101146.18
2019-02-04T03:39:09.911Z,101147.27
2019-02-04T03:41:49.909Z,101154.67
2019-02-04T03:44:29.780Z,101158.07
2019-02-04T03:47:09.118Z,101163.50
2019-02-04T03:49:49.097Z,101166.84
2019-02-04T03:52:28.850Z,101170.16
2019-02-04T03:55:10.464Z,101174.66
2019-02-04T03:57:52.074Z,101186.59
2019-02-04T04:00:35.282Z,101185.20
2019-02-04T04:03:14.555Z,101185.91
2019-02-04T04:05:54.860Z,101189.84
2019-02-04T04:08:34.657Z,101185.45
2019-02-04T04:11:13.854Z,101196.62
2019-02-04T04:13:53.638Z,101192.37
2019-02-04T04:16:33.386Z,101199.87
2019-02-04T04:19:13.233Z,101198.00
2019-02-04T04:22:10.579Z,101203.16
2019-02-04T04:24:50.266Z,101207.11
2019-02-04T04:27:30.206Z,101212.38
2019-02-04T04:30:15.588Z,101214.06
2019-02-04T04:32:55.775Z,101217.89
2019-02-04T04:35:34.923Z,101225.56
2019-02-04T04:38:14.632Z,101226.30
2019-02-04T04:40:54.411Z,101226.59
2019-02-04T04:43:35.670Z,101237.40
2019-02-04T04:46:14.783Z,101236.38
2019-02-04T04:48:55.685Z,101241.05
2019-02-04T04:51:35.295Z,101254.80
2019-02-04T04:54:15.610Z,101258.75
2019-02-04T04:56:54.754Z,101260.91
2019-02-04T04:59:34.199Z,101254.81
2019-02-04T05:02:13.579Z,101258.52
2019-02-04T05:04:53.446Z,101261.69
2019-02-04T05:07:32.754Z,101261.69
2019-02-04T05:10:15.586Z,101258.50
2019-02-04T05:12:56.634Z,101258.14
2019-02-04T05:15:36.632Z,101253.52
2019-02-04T05:18:16.380Z,101257.50
2019-02-04T05:20:55.557Z,101272.09
2019-02-04T05:23:36.754Z,101270.21
2019-02-04T05:26:15.827Z,101271.69
2019-02-04T05:28:57.148Z,101281.53
2019-02-04T05:31:38.548Z,101272.52
2019-02-04T05:34:18.317Z,101274.73
2019-02-04T05:36:57.427Z,101283.99
2019-02-04T05:39:36.800Z,101278.80
2019-02-04T05:42:16.517Z,101283.66
2019-02-04T05:44:55.968Z,101283.53
2019-02-04T05:47:35.667Z,101290.41
2019-02-04T05:50:17.579Z,101291.73
2019-02-04T05:52:59.383Z,101295.78
2019-02-04T05:55:38.582Z,101295.14
2019-02-04T05:58:18.036Z,101292.48
2019-02-04T06:00:59.705Z,101303.59
2019-02-04T06:03:38.999Z,101305.97
2019-02-04T06:06:22.349Z,101310.33
2019-02-04T06:09:01.609Z,101310.19
2019-02-04T06:11:42.293Z,101305.71
2019-02-04T06:14:23.753Z,101308.55
2019-02-04T06:17:02.850Z,101302.47
2019-02-04T06:19:42.244Z,101312.44
2019-02-04T06:22:21.855Z,101319.41
2019-02-04T06:25:01.122Z,101318.27
2019-02-04T06:27:40.744Z,101322.98
2019-02-04T06:30:20.509Z,101323.31
2019-02-04T06:32:59.771Z,101325.86
2019-02-04T06:35:39.567Z,101328.45
2019-02-04T06:38:18.820Z,101336.32
2019-02-04T06:40:57.973Z,101342.08
2019-02-04T06:43:38.039Z,101342.47
2019-02-04T06:46:17.422Z,101350.70
2019-02-04T06:48:56.552Z,101351.92
2019-02-04T06:51:38.880Z,101348.76
2019-02-04T06:54:18.532Z,101355.20
2019-02-04T06:56:58.798Z,101356.67
2019-02-04T06:59:39.352Z,101353.61
2019-02-04T07:02:19.199Z,101354.49
2019-02-04T07:04:59.074Z,101362.13
2019-02-04T07:07:38.271Z,101368.12
2019-02-04T07:10:20.731Z,101375.30
2019-02-04T07:13:00.864Z,101377.62
2019-02-04T07:15:40.081Z,101385.27
2019-02-04T07:18:19.305Z,101390.79
2019-02-04T07:20:59.101Z,101394.37
2019-02-04T07:23:38.284Z,101393.93
2019-02-04T07:26:18.927Z,101404.62
2019-02-04T07:28:58.037Z,101400.33
2019-02-04T07:31:39.418Z,101396.27
2019-02-04T07:34:22.782Z,101398.14
2019-02-04T07:37:02.620Z,101397.73
2019-02-04T07:39:46.873Z,101395.99
2019-02-04T07:42:27.877Z,101394.34
2019-02-04T07:45:08.721Z,101396.64
2019-02-04T07:47:48.592Z,101409.20
2019-02-04T07:50:27.868Z,101404.42
2019-02-04T07:53:07.136Z,101406.16
2019-02-04T07:55:46.512Z,101407.85
2019-02-04T07:58:26.421Z,101411.12
2019-02-04T08:01:05.760Z,101405.70
2019-02-04T08:03:45.690Z,101401.72
2019-02-04T08:06:25.920Z,101406.80
2019-02-04T08:09:09.575Z,101406.66
2019-02-04T08:11:49.696Z,101407.35
2019-02-04T08:14:29.460Z,101405.80
2019-02-04T08:17:12.692Z,101406.40
2019-02-04T08:19:52.067Z,101410.98
2019-02-04T08:22:36.428Z,101407.67
2019-02-04T08:25:18.319Z,101405.44
2019-02-04T08:27:59.140Z,101411.91
2019-02-04T08:30:39.247Z,101414.05
2019-02-04T08:33:18.942Z,101417.99
2019-02-04T08:35:59.155Z,101411.23
2019-02-04T08:38:42.392Z,101418.28
2019-02-04T08:41:23.813Z,101424.78
2019-02-04T08:44:03.604Z,101426.74
2019-02-04T08:46:44.464Z,101434.92
2019-02-04T08:49:24.117Z,101437.20
2019-02-04T08:52:04.539Z,101414.55
2019-02-04T08:54:44.311Z,101432.97
2019-02-04T08:57:24.014Z,101441.70
2019-02-04T09:00:08.593Z,101443.09
2019-02-04T09:02:48.542Z,101430.89
2019-02-04T09:05:30.298Z,101434.61
2019-02-04T09:08:09.796Z,101432.05
2019-02-04T09:10:49.309Z,101429.77
2019-02-04T09:13:28.818Z,101443.42
2019-02-04T09:16:08.502Z,101445.53
2019-02-04T09:18:48.236Z,101440.31
2019-02-04T09:21:27.655Z,101441.95
2019-02-04T09:24:07.288Z,101434.56
2019-02-04T09:26:46.775Z,101436.24
2019-02-04T09:29:26.995Z,101435.70
2019-02-04T09:32:06.912Z,101429.08
2019-02-04T09:34:46.372Z,101431.62
2019-02-04T09:37:26.014Z,101436.90
2019-02-04T09:40:07.133Z,101433.50
2019-02-04T09:42:46.830Z,101442.47
2019-02-04T09:45:27.788Z,101444.59
2019-02-04T09:48:10.430Z,101439.93
2019-02-04T09:50:54.154Z,101447.34
2019-02-04T09:53:35.718Z,101446.08
2019-02-04T09:56:15.661Z,101446.93
2019-02-04T09:58:55.059Z,101446.99
2019-02-04T10:01:34.597Z,101442.83
2019-02-04T10:04:14.319Z,101453.95
2019-02-04T10:06:55.492Z,101440.14
2019-02-04T10:09:35.085Z,101444.91
2019-02-04T10:12:15.929Z,101455.55
2019-02-04T10:14:55.581Z,101464.00
2019-02-04T10:17:35.196Z,101460.11
2019-02-04T10:20:16.206Z,101469.69
2019-02-04T10:22:56.140Z,101461.98
2019-02-04T10:25:38.478Z,101465.42
2019-02-04T10:28:18.093Z,101468.48
2019-02-04T10:30:57.792Z,101465.28
2019-02-04T10:33:37.511Z,101455.16
2019-02-04T10:36:20.605Z,101443.01
2019-02-04T10:39:00.085Z,101443.61
2019-02-04T10:41:39.692Z,101433.55
2019-02-04T10:44:19.242Z,101444.42
2019-02-04T10:46:59.068Z,101454.25
2019-02-04T10:49:38.813Z,101451.06
2019-02-04T10:52:18.287Z,101448.07
2019-02-04T10:54:57.929Z,101453.91
2019-02-04T10:57:40.634Z,101454.19
2019-02-04T11:00:21.820Z,101451.16
2019-02-04T11:03:01.527Z,101443.72
2019-02-04T11:05:41.295Z,101450.27
2019-02-04T11:08:21.044Z,101455.10
2019-02-04T11:11:00.806Z,101448.20
2019-02-04T11:13:40.594Z,101447.88
2019-02-04T11:16:20.402Z,101446.79
2019-02-04T11:19:00.404Z,101449.25
2019-02-04T11:21:40.238Z,101425.36
2019-02-04T11:24:19.928Z,101448.75
2019-02-04T11:26:59.481Z,101454.55
2019-02-04T11:29:39.746Z,101455.84
2019-02-04T11:32:19.613Z,101453.41
2019-02-04T11:34:59.265Z,101442.92
2019-02-04T11:37:39.136Z,101441.89
2019-02-04T11:40:23.762Z,101434.53
2019-02-04T11:43:03.401Z,101439.56
2019-02-04T11:45:43.528Z,101444.06
2019-02-04T11:48:23.306Z,101453.81
2019-02-04T11:51:09.723Z,101456.91
2019-02-04T11:53:45.186Z,101464.92
2019-02-04T11:56:26.198Z,101456.13
2019-02-04T11:59:05.804Z,101455.45
2019-02-04T12:01:45.692Z,101456.59
2019-02-04T12:04:25.354Z,101459.33
2019-02-04T12:07:05.079Z,101455.56
2019-02-04T12:09:45.183Z,101459.30
2019-02-04T12:12:39.641Z,101451.16
2019-02-04T12:15:22.579Z,101446.09
2019-02-04T12:18:05.433Z,101444.90
2019-02-04T12:20:45.203Z,101446.53
2019-02-04T12:23:30.040Z,101443.27
2019-02-04T12:26:13.919Z,101444.19
2019-02-04T12:28:53.395Z,101444.26
2019-02-04T12:31:35.786Z,101437.37
2019-02-04T12:34:23.982Z,101445.36
2019-02-04T12:37:15.906Z,101452.23
2019-02-04T12:40:03.410Z,101456.40
2019-02-04T12:42:44.737Z,101456.11
2019-02-04T12:45:43.001Z,101444.52
2019-02-04T12:48:27.303Z,101451.38
2019-02-04T12:51:33.324Z,101431.19
2019-02-04T12:54:07.140Z,101433.67
2019-02-04T12:57:03.220Z,101434.11
2019-02-04T12:59:45.177Z,101428.11
2019-02-04T13:02:24.316Z,101423.40
2019-02-04T13:05:04.724Z,101423.10
2019-02-04T13:07:44.373Z,101425.39
2019-02-04T13:10:24.010Z,101425.27
2019-02-04T13:13:04.874Z,101413.21
2019-02-04T13:15:44.585Z,101413.16
2019-02-04T13:18:24.364Z,101420.70
2019-02-04T13:21:03.994Z,101413.91
2019-02-04T13:23:43.658Z,101407.17
2019-02-04T13:26:23.159Z,101410.94
2019-02-04T13:29:02.697Z,101407.73
2019-02-04T13:31:42.287Z,101400.50
2019-02-04T13:34:21.901Z,101405.45
2019-02-04T13:37:01.451Z,101402.13
2019-02-04T13:39:41.181Z,101400.15
2019-02-04T13:42:20.774Z,101403.98
2019-02-04T13:45:00.686Z,101396.32
2019-02-04T13:47:40.319Z,101400.78
2019-02-04T13:50:21.216Z,101397.88
2019-02-04T13:53:01.425Z,101402.06
2019-02-04T13:55:41.504Z,101390.82
2019-02-04T13:58:21.882Z,101398.88
2019-02-04T14:01:01.727Z,101396.23
2019-02-04T14:03:41.349Z,101396.70
2019-02-04T14:06:20.985Z,101391.41
2019-02-04T14:09:01.233Z,101396.03
2019-02-04T14:11:47.356Z,101390.52
2019-02-04T14:14:26.972Z,101386.02
2019-02-04T14:17:07.124Z,101392.45
2019-02-04T14:19:50.376Z,101384.05
2019-02-04T14:22:30.035Z,101387.30
2019-02-04T14:25:09.634Z,101389.41
2019-02-04T14:27:50.510Z,101383.45
2019-02-04T14:30:38.400Z,101374.34
2019-02-04T14:33:23.331Z,101362.31
2019-02-04T14:36:05.977Z,101366.58
2019-02-04T14:38:45.934Z,101369.52
2019-02-04T14:41:25.641Z,101363.77
2019-02-04T14:44:18.064Z,101355.86
2019-02-04T14:47:36.011Z,101360.02
2019-02-04T14:50:33.154Z,101350.14
2019-02-04T14:53:57.349Z,101348.86
2019-02-04T14:57:22.221Z,101346.94
2019-02-04T15:00:33.533Z,101346.34
2019-02-04T15:03:32.982Z,101352.73
2019-02-04T15:06:54.239Z,101348.27
2019-02-04T15:10:15.149Z,101353.09
2019-02-04T15:13:48.930Z,101354.51
2019-02-04T15:17:22.114Z,101350.39
2019-02-04T15:20:44.629Z,101348.89
2019-02-04T15:24:10.611Z,101354.38
2019-02-04T15:28:00.056Z,101349.56
2019-02-04T15:31:36.394Z,101358.02
2019-02-04T15:35:14.277Z,101359.48
2019-02-04T15:38:38.488Z,101349.80
2019-02-04T15:42:31.975Z,101353.52
2019-02-04T15:45:40.892Z,101353.03
2019-02-04T15:49:03.510Z,101355.56
2019-02-04T15:51:52.247Z,101361.37
2019-02-04T15:54:32.090Z,101366.99
2019-02-04T15:57:11.976Z,101369.70
2019-02-04T15:59:53.520Z,101371.77
2019-02-04T16:02:32.757Z,101374.69
2019-02-04T16:05:12.988Z,101376.41
2019-02-04T16:07:53.071Z,101378.44
2019-02-04T16:10:32.938Z,101380.91
2019-02-04T16:13:12.643Z,101377.73
2019-02-04T16:15:54.884Z,101378.43
2019-02-04T16:18:34.078Z,101383.92
2019-02-04T16:21:14.018Z,101383.52
2019-02-04T16:23:54.302Z,101379.97
2019-02-04T16:26:33.594Z,101378.64
2019-02-04T16:29:12.922Z,106156.93
2019-02-04T16:31:54.641Z,106156.93
2019-02-04T16:34:36.081Z,106156.93
2019-02-04T16:37:16.016Z,106156.93
2019-02-04T16:39:55.414Z,106156.93
2019-02-04T16:42:34.686Z,106156.93
2019-02-04T16:45:19.852Z,96627.43
2019-02-04T16:48:00.644Z,101382.87
2019-02-04T16:50:39.963Z,101390.95
2019-02-04T16:53:19.291Z,101392.86
2019-02-04T16:55:59.153Z,101394.77
2019-02-04T16:58:39.522Z,101401.19
2019-02-04T17:01:25.394Z,101402.03
2019-02-04T17:04:06.339Z,101395.84
2019-02-04T17:06:47.678Z,101399.41
2019-02-04T17:09:29.269Z,101398.83
2019-02-04T17:12:12.748Z,101397.30
2019-02-04T17:14:51.768Z,101398.22
2019-02-04T17:17:31.721Z,101404.67
2019-02-04T17:20:32.662Z,101409.19
2019-02-04T17:23:21.913Z,101408.27
2019-02-04T17:25:53.844Z,101402.95
2019-02-04T17:28:33.617Z,101403.80
2019-02-04T17:31:14.183Z,101407.33
2019-02-04T17:33:56.407Z,101403.10
2019-02-04T17:36:35.674Z,101400.53
2019-02-04T17:39:15.599Z,101390.89
2019-02-04T17:41:55.776Z,101393.91
2019-02-04T17:44:35.713Z,101393.41
2019-02-04T17:47:15.012Z,101396.25
2019-02-04T17:49:55.218Z,101389.30
2019-02-04T17:52:35.778Z,101385.44
2019-02-04T17:55:28.224Z,101377.50
2019-02-04T17:58:07.661Z,101379.13
2019-02-04T18:00:49.895Z,101383.88
2019-02-04T18:03:29.709Z,101381.12
2019-02-04T18:06:11.480Z,101382.94
2019-02-04T18:08:51.167Z,101381.94
2019-02-04T18:11:37.958Z,101384.91
2019-02-04T18:14:17.168Z,101387.70
2019-02-04T18:16:56.539Z,101391.39
2019-02-04T18:19:35.966Z,101389.94
2019-02-04T18:22:19.886Z,101393.42
2019-02-04T18:24:59.753Z,101392.30
2019-02-04T18:27:39.166Z,101390.84
2019-02-04T18:30:19.675Z,101385.89
2019-02-04T18:32:59.091Z,101386.63
2019-02-04T18:35:39.169Z,101387.42
2019-02-04T18:38:18.511Z,101387.79
2019-02-04T18:40:59.727Z,101385.70
2019-02-04T18:43:39.511Z,101387.66
2019-02-04T18:46:18.813Z,101394.20
2019-02-04T18:48:59.546Z,101396.63
2019-02-04T18:51:39.072Z,101398.16
2019-02-04T18:54:18.819Z,101397.61
2019-02-04T18:57:01.661Z,101395.98
2019-02-04T18:59:41.757Z,101401.86
2019-02-04T19:02:21.376Z,101398.88
2019-02-04T19:05:01.246Z,101400.28
2019-02-04T19:07:43.356Z,101397.64
2019-02-04T19:10:24.414Z,101395.45
2019-02-04T19:13:04.056Z,101394.73
2019-02-04T19:15:43.456Z,101393.43
2019-02-04T19:18:22.944Z,101395.28
2019-02-04T19:21:02.526Z,101392.88
2019-02-04T19:23:42.013Z,101385.70
2019-02-04T19:26:21.348Z,101385.77
2019-02-04T19:29:00.836Z,101390.05
2019-02-04T19:31:41.263Z,101400.02
2019-02-04T19:34:20.678Z,101397.88
2019-02-04T19:37:00.254Z,101392.80
2019-02-04T19:39:52.341Z,101396.94
2019-02-04T19:42:32.032Z,101382.11
2019-02-04T19:45:16.418Z,101384.62
2019-02-04T19:47:56.841Z,101390.59
2019-02-04T19:50:39.221Z,101389.37
2019-02-04T19:53:22.715Z,101391.91
2019-02-04T19:56:01.204Z,101390.97
2019-02-04T19:58:42.960Z,101393.16
2019-02-04T20:01:22.711Z,101393.23
2019-02-04T20:04:03.202Z,101388.48
2019-02-04T20:06:43.737Z,101391.70
2019-02-04T20:09:23.957Z,101395.67
2019-02-04T20:12:04.294Z,101386.23
2019-02-04T20:14:45.432Z,101387.37
2019-02-04T20:17:29.032Z,101382.34
2019-02-04T20:20:11.323Z,101380.41
2019-02-04T20:22:51.067Z,101372.50
2019-02-04T20:25:31.805Z,101368.47
2019-02-04T20:28:11.723Z,101369.53
2019-02-04T20:30:51.305Z,101368.02
2019-02-04T20:33:31.414Z,101372.55
2019-02-04T20:36:12.149Z,101371.92
2019-02-04T20:38:52.994Z,101371.31
2019-02-04T20:41:32.921Z,101373.02
2019-02-04T20:44:14.013Z,101372.39
2019-02-04T20:46:53.947Z,101373.86
2019-02-04T20:49:34.722Z,101369.80
2019-02-04T20:52:14.507Z,101368.55
2019-02-04T20:54:55.270Z,101367.80
2019-02-04T20:57:35.041Z,101371.23
2019-02-04T21:00:21.709Z,101378.27
2019-02-04T21:03:02.167Z,101376.86
2019-02-04T21:05:42.123Z,101383.15
2019-02-04T21:08:21.588Z,101385.35
2019-02-04T21:11:01.328Z,101387.36
2019-02-04T21:13:40.799Z,101393.09
2019-02-04T21:16:20.324Z,101392.72
2019-02-04T21:18:59.672Z,101390.38
2019-02-04T21:21:39.112Z,101387.24
2019-02-04T21:24:18.416Z,101386.98
2019-02-04T21:26:57.855Z,101382.48
2019-02-04T21:29:37.613Z,101386.66
2019-02-04T21:32:19.504Z,101385.75
2019-02-04T21:34:59.025Z,101381.08
2019-02-04T21:37:38.982Z,101380.91
2019-02-04T21:40:19.023Z,101376.70
2019-02-04T21:42:59.002Z,101369.62
2019-02-04T21:45:38.218Z,101363.06
2019-02-04T21:48:17.490Z,101362.32
2019-02-04T21:50:56.923Z,101362.30
2019-02-04T21:53:37.024Z,101362.19
2019-02-04T21:56:16.289Z,101359.16
2019-02-04T21:58:55.547Z,101349.38
2019-02-04T22:01:34.788Z,101351.77
2019-02-04T22:04:15.043Z,101343.17
2019-02-04T22:06:55.471Z,101346.52
2019-02-04T22:09:54.303Z,101348.96
2019-02-04T22:12:38.204Z,101352.66
2019-02-04T22:15:19.691Z,101352.26
2019-02-04T22:17:59.231Z,101352.55
2019-02-04T22:20:38.695Z,101352.58
2019-02-04T22:23:18.027Z,101346.38
2019-02-04T22:25:57.680Z,101350.02
2019-02-04T22:28:37.017Z,101344.95
2019-02-04T22:31:16.456Z,101339.23
2019-02-04T22:33:55.623Z,101338.94
2019-02-04T22:36:37.648Z,101338.13
2019-02-04T22:39:17.083Z,101337.91
2019-02-04T22:41:56.303Z,101343.05
2019-02-04T22:44:35.641Z,101343.41
2019-02-04T22:47:15.047Z,101337.16
2019-02-04T22:49:55.016Z,101337.58
2019-02-04T22:52:34.400Z,101341.50
2019-02-04T22:55:14.417Z,101336.95
2019-02-04T22:57:56.534Z,101338.84
2019-02-04T23:01:23.297Z,101344.95
2019-02-04T23:04:06.198Z,101343.91
2019-02-04T23:06:45.357Z,101333.83
2019-02-04T23:09:24.580Z,101346.03
2019-02-04T23:12:04.272Z,101340.27
2019-02-04T23:14:43.572Z,101339.31
2019-02-04T23:17:22.955Z,101335.81
2019-02-04T23:20:02.175Z,101334.66
2019-02-04T23:22:44.015Z,101326.38
2019-02-04T23:25:22.463Z,101326.20
2019-02-04T23:28:01.951Z,101325.28
2019-02-04T23:30:43.712Z,101318.45
2019-02-04T23:33:34.167Z,101315.19
2019-02-04T23:36:13.291Z,101308.31
2019-02-04T23:38:52.511Z,101303.77
2019-02-04T23:41:31.874Z,101303.84
2019-02-04T23:44:11.192Z,101304.14
2019-02-04T23:46:52.451Z,101304.37
2019-02-04T23:49:31.698Z,101299.72
2019-02-04T23:52:11.113Z,101293.84
2019-02-04T23:54:50.339Z,101299.08
2019-02-04T23:57:29.668Z,101300.03
